Time;durP1;ratioP1;P1;durP2;ratioP2;P2;SDS_P1;SDS_P2;PMS_P1;PMS_P2;Temp;Humidity;BMP_temperature;BMP_pressure;BME280_temperature;BME280_humidity;BME280_pressure;Samples;Min_cycle;Max_cycle;Signal;HPM_P1;HPM_P2
2023/08/26 00:01:51;;;;;;;11.90;5.90;;;;;;;21.93;100.00;99777.38;5114855;28;20077;-82
2023/08/26 00:04:16;;;;;;;7.38;5.28;;;;;;;21.74;100.00;99750.06;5113050;28;20050;-81
2023/08/26 00:06:41;;;;;;;8.27;5.53;;;;;;;21.85;100.00;99762.09;5117011;28;20424;-81
2023/08/26 00:09:07;;;;;;;6.93;5.57;;;;;;;21.81;100.00;99763.84;5137113;28;20016;-79
2023/08/26 00:11:32;;;;;;;8.45;5.47;;;;;;;21.79;100.00;99761.50;5138419;28;20083;-78
2023/08/26 00:13:57;;;;;;;6.80;4.80;;;;;;;21.79;100.00;99761.50;5139410;28;20024;-80
2023/08/26 00:16:23;;;;;;;7.07;4.95;;;;;;;21.74;100.00;99762.50;5124186;28;20416;-84
2023/08/26 00:18:49;;;;;;;9.10;4.78;;;;;;;21.71;100.00;99759.97;5117658;28;20035;-82
2023/08/26 00:21:17;;;;;;;10.68;4.32;;;;;;;21.68;100.00;99764.84;5117112;28;20142;-83
2023/08/26 00:23:42;;;;;;;10.75;5.07;;;;;;;21.66;100.00;99758.84;5115474;28;20027;-83
2023/08/26 00:26:09;;;;;;;6.20;4.40;;;;;;;21.63;100.00;99765.81;5116981;28;20015;-82
2023/08/26 00:28:34;;;;;;;7.80;4.45;;;;;;;21.60;100.00;99758.25;5116489;28;20033;-83
2023/08/26 00:31:00;;;;;;;11.75;4.65;;;;;;;21.58;100.00;99770.47;5116264;28;20020;-83
2023/08/26 00:33:28;;;;;;;7.13;4.10;;;;;;;21.50;100.00;99768.94;5116340;28;20028;-84
2023/08/26 00:35:54;;;;;;;6.45;4.13;;;;;;;21.51;100.00;99770.47;5097751;28;20384;-83
2023/08/26 00:38:19;;;;;;;5.38;4.13;;;;;;;21.49;100.00;99773.19;5116359;28;20032;-83
2023/08/26 00:40:44;;;;;;;6.68;4.85;;;;;;;21.47;100.00;99770.09;5115093;28;20054;-82
2023/08/26 00:43:10;;;;;;;6.68;4.20;;;;;;;21.43;100.00;99764.66;5117001;28;20016;-83
2023/08/26 00:45:47;;;;;;;9.60;3.92;;;;;;;21.33;100.00;99751.28;5114677;28;20027;-82
2023/08/26 00:48:12;;;;;;;6.55;4.50;;;;;;;21.35;100.00;99758.06;5114682;28;20480;-83
2023/08/26 00:50:39;;;;;;;5.43;3.78;;;;;;;21.32;100.00;99761.34;5116036;28;20023;-82
2023/08/26 00:53:05;;;;;;;9.30;4.18;;;;;;;21.29;100.00;99751.66;5116477;28;20113;-84
2023/08/26 00:55:31;;;;;;;5.18;4.15;;;;;;;21.26;100.00;99761.56;5114209;28;20059;-82
2023/08/26 00:57:57;;;;;;;8.32;4.53;;;;;;;21.23;100.00;99772.22;5115602;28;20097;-83
2023/08/26 01:00:23;;;;;;;8.00;4.45;;;;;;;21.16;100.00;99764.25;5115700;28;20099;-82
2023/08/26 01:02:49;;;;;;;8.43;4.13;;;;;;;21.18;100.00;99779.00;5114237;28;20059;-84
2023/08/26 01:05:15;;;;;;;5.47;4.45;;;;;;;21.15;100.00;99779.38;5115436;28;20088;-82
2023/08/26 01:07:41;;;;;;;10.38;5.97;;;;;;;21.10;100.00;99766.59;5115283;28;20051;-85
2023/08/26 01:10:07;;;;;;;11.98;5.07;;;;;;;21.11;100.00;99776.06;5114164;28;20050;-84
2023/08/26 01:12:49;;;;;;;7.10;4.80;;;;;;;21.05;100.00;99770.44;5113830;28;20033;-84
2023/08/26 01:15:15;;;;;;;9.70;5.43;;;;;;;21.03;100.00;99775.31;5113809;28;20051;-83
2023/08/26 01:17:40;;;;;;;7.07;4.82;;;;;;;20.98;100.00;99771.22;5115564;28;20066;-84
2023/08/26 01:20:08;;;;;;;8.73;5.40;;;;;;;20.95;100.00;99775.28;5115815;28;20031;-85
2023/08/26 01:22:35;;;;;;;6.93;5.10;;;;;;;20.90;100.00;99781.28;5115552;27;20053;-84
2023/08/26 01:25:01;;;;;;;6.43;4.82;;;;;;;20.87;100.00;99777.41;5115358;28;20387;-85
2023/08/26 01:27:26;;;;;;;9.02;4.82;;;;;;;20.86;100.00;99780.88;5114709;28;20020;-85
2023/08/26 01:29:51;;;;;;;8.68;5.13;;;;;;;20.81;100.00;99785.53;5112532;28;20035;-83
2023/08/26 01:32:37;;;;;;;8.07;4.72;;;;;;;20.81;100.00;99779.72;5113349;28;20027;-82
2023/08/26 01:35:05;;;;;;;8.30;5.20;;;;;;;20.75;100.00;99785.69;5097424;28;20024;-83
2023/08/26 01:37:31;;;;;;;10.48;5.70;;;;;;;20.71;100.00;99782.41;5111536;28;20100;-83
2023/08/26 01:39:58;;;;;;;8.63;5.60;;;;;;;20.72;100.00;99791.91;5112403;28;20019;-81
2023/08/26 01:42:24;;;;;;;8.82;5.57;;;;;;;20.64;100.00;99788.19;5112731;28;20030;-81
2023/08/26 01:44:50;;;;;;;6.32;5.32;;;;;;;20.67;100.00;99798.63;5112679;28;20098;-83
2023/08/26 01:47:16;;;;;;;7.65;5.13;;;;;;;20.64;100.00;99802.69;5112343;28;20031;-83
2023/08/26 01:49:43;;;;;;;12.48;5.82;;;;;;;20.57;100.00;99795.50;5111872;28;20423;-81
2023/08/26 01:52:09;;;;;;;8.25;5.28;;;;;;;20.46;100.00;99768.94;5113484;28;20032;-84
2023/08/26 01:54:35;;;;;;;7.57;4.95;;;;;;;20.58;100.00;99787.56;5112697;28;20456;-84
2023/08/26 01:57:00;;;;;;;7.18;5.47;;;;;;;20.57;100.00;99794.72;5112246;28;20031;-82
2023/08/26 01:59:26;;;;;;;6.45;5.10;;;;;;;20.55;100.00;99789.47;5112397;28;20039;-84
2023/08/26 02:01:51;;;;;;;8.85;5.75;;;;;;;20.50;100.00;99799.16;5112872;28;20483;-82
2023/08/26 02:04:17;;;;;;;8.45;5.82;;;;;;;20.48;100.00;99795.28;5112203;28;20055;-82
2023/08/26 02:06:42;;;;;;;12.68;5.50;;;;;;;20.46;100.00;99798.75;5112138;28;20100;-82
2023/08/26 02:09:07;;;;;;;15.73;5.40;;;;;;;20.48;100.00;99798.19;5113947;28;20080;-83
2023/08/26 02:11:33;;;;;;;8.70;5.47;;;;;;;20.45;100.00;99800.09;5113227;28;20023;-84
2023/08/26 02:13:58;;;;;;;10.00;4.82;;;;;;;20.43;100.00;99799.13;5114396;28;20035;-84
2023/08/26 02:16:24;;;;;;;12.02;5.97;;;;;;;20.40;100.00;99795.22;5112939;28;20035;-85
2023/08/26 02:18:49;;;;;;;9.02;5.50;;;;;;;20.40;100.00;99798.91;5113049;28;20038;-86
2023/08/26 02:21:15;;;;;;;7.47;5.47;;;;;;;20.33;100.00;99788.06;5115456;28;20106;-85
2023/08/26 02:23:40;;;;;;;13.18;6.22;;;;;;;20.38;100.00;99797.94;5114542;28;20076;-83
2023/08/26 02:26:05;;;;;;;10.75;6.68;;;;;;;20.36;100.00;99792.72;5114364;28;20059;-83
2023/08/26 02:28:31;;;;;;;8.15;5.47;;;;;;;20.36;100.00;99804.31;5114750;28;20028;-83
2023/08/26 02:30:56;;;;;;;7.20;5.70;;;;;;;20.32;100.00;99803.16;5114195;28;20027;-84
2023/08/26 02:33:24;;;;;;;8.15;5.82;;;;;;;20.34;100.00;99806.25;5113016;28;20078;-83
2023/08/26 02:35:49;;;;;;;9.20;5.45;;;;;;;20.31;100.00;99798.69;5113738;28;20027;-83
2023/08/26 02:38:15;;;;;;;7.40;5.47;;;;;;;20.22;100.00;99800.00;5112765;28;20027;-84
2023/08/26 02:40:40;;;;;;;8.77;5.15;;;;;;;20.21;100.00;99809.28;5112604;28;20027;-83
2023/08/26 02:43:06;;;;;;;9.30;5.50;;;;;;;20.17;100.00;99809.66;5112752;28;20494;-84
2023/08/26 02:45:31;;;;;;;8.63;6.00;;;;;;;20.10;100.00;99806.72;5113758;28;20502;-83
2023/08/26 02:47:57;;;;;;;9.57;6.18;;;;;;;20.06;100.00;99809.97;5113921;28;20027;-84
2023/08/26 02:50:24;;;;;;;9.00;6.38;;;;;;;19.99;100.00;99818.66;5116703;28;20099;-82
2023/08/26 02:52:49;;;;;;;10.40;5.65;;;;;;;19.97;100.00;99819.22;5116834;28;20051;-84
2023/08/26 02:55:15;;;;;;;7.60;5.50;;;;;;;19.96;100.00;99820.53;5116651;28;20035;-83
2023/08/26 02:57:41;;;;;;;8.20;6.43;;;;;;;19.98;100.00;99820.00;5116798;28;20500;-83
2023/08/26 03:00:07;;;;;;;8.45;6.10;;;;;;;19.99;100.00;99818.66;5116920;28;20028;-82
2023/08/26 03:02:32;;;;;;;8.68;6.53;;;;;;;20.00;100.00;99818.09;5116941;28;20088;-83
2023/08/26 03:04:57;;;;;;;11.80;6.13;;;;;;;20.00;100.00;99806.47;5133554;27;20028;-84
2023/08/26 03:07:23;;;;;;;11.63;6.57;;;;;;;20.00;100.00;99812.28;5117646;28;20110;-83
2023/08/26 03:09:48;;;;;;;8.07;6.38;;;;;;;20.02;100.00;99823.28;5117528;28;20464;-83
2023/08/26 03:12:14;;;;;;;8.13;6.20;;;;;;;19.96;100.00;99824.22;5117575;28;20020;-82
2023/08/26 03:14:39;;;;;;;7.97;6.20;;;;;;;19.91;100.00;99833.06;5117787;28;20026;-83
2023/08/26 03:17:04;;;;;;;9.52;6.50;;;;;;;19.85;100.00;99824.53;5116110;28;20024;-83
2023/08/26 03:19:30;;;;;;;9.32;6.53;;;;;;;19.79;100.00;99828.94;5116199;28;20059;-83
2023/08/26 03:21:55;;;;;;;9.52;6.55;;;;;;;19.68;100.00;99832.91;5116220;28;20028;-83
2023/08/26 03:24:20;;;;;;;9.82;6.53;;;;;;;19.65;100.00;99836.97;5098859;28;20103;-82
2023/08/26 03:26:46;;;;;;;11.45;6.63;;;;;;;19.62;100.00;99840.19;5117341;28;20372;-83
2023/08/26 03:29:11;;;;;;;10.07;5.70;;;;;;;19.56;100.00;99836.69;5118209;27;20055;-81
2023/08/26 03:31:38;;;;;;;9.68;6.45;;;;;;;19.57;100.00;99850.59;5117107;28;20050;-82
2023/08/26 03:34:03;;;;;;;7.80;5.82;;;;;;;19.56;100.00;99837.44;5133802;27;20498;-83
2023/08/26 03:36:29;;;;;;;9.70;5.28;;;;;;;19.60;100.00;99837.09;5115721;28;20040;-82
2023/08/26 03:38:55;;;;;;;12.15;5.93;;;;;;;19.59;100.00;99836.31;5115796;28;20027;-83
2023/08/26 03:41:20;;;;;;;7.30;5.20;;;;;;;19.64;100.00;99829.59;5117214;28;20028;-83
2023/08/26 03:43:45;;;;;;;11.52;5.97;;;;;;;19.67;100.00;99830.56;5117214;28;20114;-83
2023/08/26 03:46:11;;;;;;;9.80;5.65;;;;;;;19.71;100.00;99822.31;5115859;28;20098;-83
2023/08/26 03:48:36;;;;;;;7.28;5.35;;;;;;;19.71;100.00;99825.97;5116951;28;20024;-84
2023/08/26 03:51:02;;;;;;;7.10;5.40;;;;;;;19.70;100.00;99817.84;5116897;28;20464;-84
2023/08/26 03:53:28;;;;;;;6.43;5.25;;;;;;;19.77;100.00;99814.22;5116973;28;20028;-82
2023/08/26 03:55:53;;;;;;;8.40;4.85;;;;;;;19.77;100.00;99820.78;5116648;28;20372;-83
2023/08/26 03:58:19;;;;;;;6.95;5.05;;;;;;;19.80;100.00;99821.78;5116236;28;20034;-84
2023/08/26 04:00:44;;;;;;;7.78;5.38;;;;;;;19.74;100.00;99819.03;5117017;28;20054;-83
2023/08/26 04:03:10;;;;;;;7.68;4.90;;;;;;;19.78;100.00;99824.47;5117313;28;20383;-84
2023/08/26 04:05:35;;;;;;;9.02;4.82;;;;;;;19.72;100.00;99826.75;5117369;28;20035;-84
2023/08/26 04:08:01;;;;;;;7.07;4.63;;;;;;;19.66;100.00;99829.78;5115738;28;20027;-83
2023/08/26 04:10:26;;;;;;;7.95;5.28;;;;;;;19.71;100.00;99831.75;5117082;28;20024;-83
2023/08/26 04:12:52;;;;;;;4.88;4.38;;;;;;;19.72;100.00;99841.25;5117008;28;20019;-84
2023/08/26 04:15:18;;;;;;;6.88;4.15;;;;;;;19.62;100.00;99822.78;5144787;27;20007;-82
2023/08/26 04:17:44;;;;;;;8.18;4.15;;;;;;;19.81;100.00;99846.53;5138706;28;20016;-81
2023/08/26 04:20:11;;;;;;;7.47;3.83;;;;;;;19.87;100.00;99850.81;5139028;28;20029;-82
2023/08/26 04:22:37;;;;;;;5.90;3.95;;;;;;;19.93;100.00;99825.38;5137632;28;20046;-82
2023/08/26 04:25:03;;;;;;;6.05;3.70;;;;;;;20.00;100.00;99826.78;5118013;28;20368;-83
2023/08/26 04:27:28;;;;;;;7.28;3.75;;;;;;;20.17;100.00;99832.09;5115474;28;20012;-84
2023/08/26 04:29:53;;;;;;;8.02;4.28;;;;;;;20.26;100.00;99825.75;5116507;28;20107;-85
2023/08/26 04:32:19;;;;;;;5.20;3.65;;;;;;;20.32;100.00;99820.56;5116665;28;20026;-83
2023/08/26 04:34:45;;;;;;;5.53;4.10;;;;;;;20.45;100.00;99819.66;5116224;28;20448;-84
2023/08/26 04:37:12;;;;;;;5.15;3.60;;;;;;;20.51;100.00;99826.81;5115690;27;20495;-82
2023/08/26 04:39:37;;;;;;;6.68;3.70;;;;;;;20.58;100.00;99808.69;5114905;28;20024;-82
2023/08/26 04:42:03;;;;;;;6.72;3.53;;;;;;;20.69;100.00;99808.34;5115631;28;20031;-82
2023/08/26 04:44:28;;;;;;;7.90;3.55;;;;;;;20.84;100.00;99818.47;5116666;28;20033;-84
2023/08/26 04:46:54;;;;;;;7.60;3.40;;;;;;;20.85;100.00;99800.44;5114986;28;20026;-84
2023/08/26 04:49:19;;;;;;;4.88;3.53;;;;;;;21.07;100.00;99810.56;5117303;28;20513;-84
2023/08/26 04:51:54;;;;;;;6.50;4.05;;;;;;;21.18;100.00;99807.28;5116548;28;20019;-83
2023/08/26 04:54:21;;;;;;;5.15;3.10;;;;;;;21.20;100.00;99811.16;5116588;28;20476;-84
2023/08/26 04:56:46;;;;;;;4.35;3.17;;;;;;;21.33;100.00;99809.44;5116029;28;20031;-83
2023/08/26 04:59:12;;;;;;;6.72;3.38;;;;;;;21.45;100.00;99819.31;5115890;27;20077;-83
2023/08/26 05:01:37;;;;;;;8.95;3.15;;;;;;;21.66;100.00;99832.31;5116224;28;20023;-85
2023/08/26 05:04:03;;;;;;;5.20;3.80;;;;;;;21.86;100.00;99823.97;5098396;28;20020;-84
2023/08/26 05:06:29;;;;;;;7.18;3.50;;;;;;;22.07;100.00;99821.59;5116995;28;20012;-84
2023/08/26 05:08:54;;;;;;;8.63;3.28;;;;;;;22.32;100.00;99815.91;5115824;28;20023;-84
2023/08/26 05:11:20;;;;;;;4.30;3.35;;;;;;;22.57;100.00;99807.28;5113587;28;20023;-86
2023/08/26 05:13:45;;;;;;;4.10;2.90;;;;;;;22.80;100.00;99810.84;5115518;28;20031;-84
2023/08/26 05:16:10;;;;;;;8.07;3.00;;;;;;;23.02;100.00;99803.34;5115266;28;20365;-84
2023/08/26 05:18:36;;;;;;;3.47;2.72;;;;;;;23.22;100.00;99808.06;5113923;28;20027;-84
2023/08/26 05:21:01;;;;;;;4.10;3.05;;;;;;;23.44;100.00;99818.00;5114002;28;20032;-85
2023/08/26 05:23:27;;;;;;;4.60;2.90;;;;;;;23.64;100.00;99811.84;5112289;28;20030;-81
2023/08/26 05:25:53;;;;;;;4.22;3.00;;;;;;;23.88;100.00;99809.47;5115016;28;20042;-82
2023/08/26 05:28:19;;;;;;;3.78;2.45;;;;;;;24.08;100.00;99817.81;5119518;28;20028;-83
2023/08/26 05:30:45;;;;;;;4.05;3.03;;;;;;;24.27;100.00;99799.72;5120857;28;20073;-81
2023/08/26 05:33:11;;;;;;;5.07;3.22;;;;;;;24.43;100.00;99804.00;5100682;28;20129;-80
2023/08/26 05:35:37;;;;;;;4.45;3.03;;;;;;;24.45;100.00;99792.47;5119718;28;20066;-82
2023/08/26 05:38:04;;;;;;;4.18;3.17;;;;;;;24.54;100.00;99808.53;5115449;28;20506;-80
2023/08/26 05:40:30;;;;;;;6.95;3.30;;;;;;;24.48;100.00;99805.09;5115876;28;20072;-80
2023/08/26 05:42:56;;;;;;;3.70;2.97;;;;;;;24.45;100.00;99812.13;5114917;28;20066;-81
2023/08/26 05:45:28;;;;;;;5.40;3.42;;;;;;;24.39;100.00;99803.66;5096449;28;20047;-80
2023/08/26 05:47:53;;;;;;;4.55;3.33;;;;;;;24.39;100.00;99815.34;5115229;28;20076;-80
2023/08/26 05:50:20;;;;;;;3.90;3.25;;;;;;;24.27;100.00;99796.78;5115094;28;20023;-81
2023/08/26 05:52:47;;;;;;;7.03;3.25;;;;;;;24.44;100.00;99819.38;5113925;28;20088;-82
2023/08/26 05:55:13;;;;;;;4.53;3.30;;;;;;;24.58;100.00;99823.47;5115867;28;20045;-79
2023/08/26 05:57:41;;;;;;;9.73;3.30;;;;;;;24.86;100.00;99833.81;5114359;28;20024;-81
2023/08/26 06:00:08;;;;;;;4.68;3.17;;;;;;;25.23;100.00;99832.53;5113234;28;20057;-79
2023/08/26 06:02:34;;;;;;;3.63;2.72;;;;;;;25.61;100.00;99817.31;5111653;28;20081;-79
2023/08/26 06:05:02;;;;;;;7.05;3.20;;;;;;;25.91;100.00;99837.28;5092561;28;20035;-75
2023/08/26 06:07:29;;;;;;;11.40;3.25;;;;;;;26.13;100.00;99837.47;5093762;28;20376;-74
2023/08/26 06:10:04;;;;;;;6.03;3.00;;;;;;;26.21;100.00;99841.06;5093947;28;20024;-78
2023/08/26 06:12:30;;;;;;;3.55;2.65;;;;;;;26.07;100.00;99849.50;5093695;28;20085;-74
2023/08/26 06:14:56;;;;;;;3.17;2.78;;;;;;;25.95;100.00;99850.69;5093803;28;20503;-76
2023/08/26 06:17:21;;;;;;;4.72;3.20;;;;;;;25.80;100.00;99854.66;5093601;28;20119;-76
2023/08/26 06:19:47;;;;;;;3.38;3.00;;;;;;;25.84;100.00;99857.88;5093654;28;20042;-77
2023/08/26 06:22:13;;;;;;;4.60;3.22;;;;;;;25.87;100.00;99868.41;5093661;28;20600;-78
2023/08/26 06:24:38;;;;;;;5.50;2.92;;;;;;;25.99;100.00;99866.41;5092533;28;20054;-77
2023/08/26 06:27:06;;;;;;;4.38;3.30;;;;;;;26.03;100.00;99871.81;5093726;28;20020;-77
2023/08/26 06:29:31;;;;;;;6.85;2.97;;;;;;;25.97;100.00;99875.06;5093539;28;20072;-75
2023/08/26 06:31:57;;;;;;;7.40;3.15;;;;;;;25.97;100.00;99883.06;5093383;28;20487;-77
2023/08/26 06:34:23;;;;;;;12.13;3.63;;;;;;;26.23;100.00;99896.84;5093659;28;20048;-77
2023/08/26 06:36:49;;;;;;;5.68;2.92;;;;;;;26.41;100.00;99894.59;5093322;28;20044;-75
2023/08/26 06:39:15;;;;;;;6.10;2.78;;;;;;;26.66;100.00;99889.19;5091776;28;20559;-75
2023/08/26 06:41:40;;;;;;;6.63;2.88;;;;;;;26.60;100.00;99877.78;5093387;28;20118;-75
2023/08/26 06:44:08;;;;;;;6.50;3.00;;;;;;;26.49;100.00;99884.25;5093574;28;20032;-75
2023/08/26 06:46:34;;;;;;;4.93;2.63;;;;;;;26.52;100.00;99883.00;5093306;28;20414;-74
2023/08/26 06:49:01;;;;;;;6.35;2.75;;;;;;;26.49;100.00;99878.38;5092251;28;20512;-74
2023/08/26 06:51:28;;;;;;;5.82;2.83;;;;;;;26.39;100.00;99879.75;5094749;28;20046;-76
2023/08/26 06:53:56;;;;;;;8.00;2.67;;;;;;;26.34;100.00;99879.47;5093224;28;20039;-75
2023/08/26 06:56:23;;;;;;;7.30;3.15;;;;;;;26.46;100.00;99867.91;5093473;28;20020;-76
2023/08/26 06:58:50;;;;;;;8.68;2.80;;;;;;;26.47;100.00;99875.28;5093207;28;20028;-76
2023/08/26 07:01:17;;;;;;;5.75;3.50;;;;;;;26.59;100.00;99876.22;5092195;28;20035;-77
2023/08/26 07:03:43;;;;;;;5.25;2.65;;;;;;;26.51;100.00;99874.84;5093262;28;20480;-76
2023/08/26 07:06:09;;;;;;;3.15;2.67;;;;;;;26.55;100.00;99875.16;5093255;28;20026;-76
2023/08/26 07:08:35;;;;;;;3.80;2.60;;;;;;;26.73;100.00;99874.41;5092931;28;20114;-77
2023/08/26 07:11:02;;;;;;;6.43;2.92;;;;;;;26.89;100.00;99871.16;5091752;28;20024;-77
2023/08/26 07:13:28;;;;;;;5.28;2.70;;;;;;;27.19;100.00;99871.25;5092967;28;20093;-76
2023/08/26 07:15:53;;;;;;;3.13;2.40;;;;;;;27.35;100.00;99873.88;5091523;28;20207;-74
2023/08/26 07:18:19;;;;;;;7.68;3.20;;;;;;;27.35;100.00;99874.63;5093334;28;20107;-76
2023/08/26 07:20:46;;;;;;;4.25;2.83;;;;;;;27.17;100.00;99871.09;5092921;28;20487;-75
2023/08/26 07:23:12;;;;;;;4.38;2.85;;;;;;;26.87;100.00;99870.97;5102429;28;21299;-76
2023/08/26 07:25:41;;;;;;;3.50;2.33;;;;;;;26.88;100.00;99863.72;5111523;28;20106;-74
2023/08/26 07:28:08;;;;;;;5.70;2.80;;;;;;;27.15;100.00;99868.03;5112589;28;20113;-73
2023/08/26 07:30:34;;;;;;;4.43;2.88;;;;;;;27.41;100.00;99866.25;5113002;28;20114;-75
2023/08/26 07:32:59;;;;;;;6.80;2.53;;;;;;;27.70;100.00;99874.94;5111304;28;20495;-74
2023/08/26 07:35:26;;;;;;;4.80;2.65;;;;;;;27.95;100.00;99878.25;5116275;28;20027;-75
2023/08/26 07:37:52;;;;;;;4.18;2.75;;;;;;;28.07;100.00;99875.41;5115720;27;20049;-76
2023/08/26 07:40:19;;;;;;;7.50;3.00;;;;;;;28.77;100.00;99893.47;5116237;28;20052;-76
2023/08/26 07:42:45;;;;;;;6.18;2.90;;;;;;;29.16;100.00;99877.03;5117908;28;20039;-77
2023/08/26 07:45:11;;;;;;;5.55;2.72;;;;;;;29.13;100.00;99889.31;5117404;28;20121;-78
2023/08/26 07:47:39;;;;;;;6.20;2.90;;;;;;;29.45;100.00;99896.53;5117083;27;20039;-78
2023/08/26 07:50:12;;;;;;;6.38;2.10;;;;;;;29.81;100.00;99895.19;5098358;28;20028;-77
2023/08/26 07:52:38;;;;;;;2.50;2.30;;;;;;;30.25;100.00;99895.06;5116111;28;20036;-78
2023/08/26 07:55:05;;;;;;;5.32;2.33;;;;;;;29.67;100.00;99901.75;5116105;28;20150;-79
2023/08/26 07:57:33;;;;;;;3.45;3.10;;;;;;;29.42;100.00;99889.75;5115873;28;20036;-79
2023/08/26 07:59:58;;;;;;;4.03;2.95;;;;;;;29.67;100.00;99892.13;5114862;28;20080;-76
2023/08/26 08:02:24;;;;;;;7.35;2.92;;;;;;;29.26;100.00;99897.53;5116166;28;20118;-78
2023/08/26 08:04:50;;;;;;;5.90;3.15;;;;;;;29.20;100.00;99906.72;5116288;28;20027;-80
2023/08/26 08:07:17;;;;;;;7.53;2.55;;;;;;;29.60;100.00;99910.81;5113977;28;20088;-77
2023/08/26 08:09:53;;;;;;;4.03;2.60;;;;;;;30.04;100.00;99909.94;5116309;28;20027;-78
2023/08/26 08:12:18;;;;;;;5.63;2.97;;;;;;;30.21;100.00;99915.47;5116229;27;20059;-83
2023/08/26 08:14:44;;;;;;;2.88;2.30;;;;;;;30.35;100.00;99927.38;5116222;28;20116;-77
2023/08/26 08:17:10;;;;;;;4.72;2.70;;;;;;;30.32;100.00;99928.63;5114367;27;20035;-78
2023/08/26 08:19:38;;;;;;;5.95;2.33;;;;;;;30.42;100.00;99923.38;5116047;28;20020;-78
2023/08/26 08:22:04;;;;;;;5.82;3.13;;;;;;;30.45;100.00;99922.09;5115452;27;20035;-79
2023/08/26 08:24:29;;;;;;;4.15;2.50;;;;;;;30.71;100.00;99928.88;5115292;28;20042;-74
2023/08/26 08:26:55;;;;;;;4.10;3.08;;;;;;;31.08;100.00;99932.56;5115885;28;20100;-75
2023/08/26 08:29:21;;;;;;;6.38;2.75;;;;;;;31.23;100.00;99937.16;5115947;28;20047;-75
2023/08/26 08:31:47;;;;;;;3.72;2.40;;;;;;;30.51;100.00;99940.91;5116050;28;20119;-75
2023/08/26 08:34:13;;;;;;;4.28;3.08;;;;;;;30.41;100.00;99943.25;5115732;27;20452;-74
2023/08/26 08:36:39;;;;;;;5.25;2.97;;;;;;;30.16;100.00;99946.09;5114650;28;20518;-74
2023/08/26 08:39:11;;;;;;;4.53;2.70;;;;;;;29.83;100.00;99949.13;5115412;28;20048;-76
2023/08/26 08:41:55;;;;;;;5.65;2.92;;;;;;;29.55;100.00;99935.47;5115751;28;20027;-76
2023/08/26 08:44:32;;;;;;;4.45;2.92;;;;;;;29.45;100.00;99928.94;5116067;28;20067;-78
2023/08/26 08:46:59;;;;;;;3.28;2.70;;;;;;;29.34;100.00;99939.28;5094326;28;20019;-78
2023/08/26 08:49:24;;;;;;;6.07;3.13;;;;;;;29.59;100.00;99930.66;5110774;28;20021;-80
2023/08/26 08:51:51;;;;;;;4.43;3.35;;;;;;;29.65;100.00;99933.22;5094694;28;20042;-78
2023/08/26 08:54:17;;;;;;;3.05;2.70;;;;;;;29.70;100.00;99929.91;5077256;28;20031;-79
2023/08/26 08:56:44;;;;;;;4.53;3.13;;;;;;;29.83;100.00;99924.78;5095271;28;20476;-78
2023/08/26 08:59:11;;;;;;;3.25;2.95;;;;;;;30.06;100.00;99922.63;5077087;28;20028;-77
2023/08/26 09:01:37;;;;;;;5.30;3.40;;;;;;;30.12;100.00;99914.16;5093841;28;20028;-78
2023/08/26 09:04:12;;;;;;;5.80;3.42;;;;;;;30.31;100.00;99910.19;5093895;28;20035;-76
2023/08/26 09:06:38;;;;;;;3.90;2.85;;;;;;;30.61;100.00;99907.56;5095212;28;20476;-79
2023/08/26 09:09:11;;;;;;;6.53;3.83;;;;;;;31.02;100.00;99911.53;5095229;28;20020;-77
2023/08/26 09:11:42;;;;;;;4.00;3.42;;;;;;;31.25;100.00;99905.56;5095152;28;20041;-77
2023/08/26 09:14:07;;;;;;;5.72;2.92;;;;;;;31.33;100.00;99891.25;5095099;28;20028;-78
2023/08/26 09:16:41;;;;;;;4.72;3.42;;;;;;;31.24;100.00;99898.13;5094584;28;20050;-75
2023/08/26 09:19:09;;;;;;;6.97;3.50;;;;;;;31.34;100.00;99904.59;5079686;28;20158;-75
2023/08/26 09:21:43;;;;;;;5.28;3.35;;;;;;;31.68;100.00;99896.19;5110266;28;20392;-79
2023/08/26 09:24:13;;;;;;;6.43;3.80;;;;;;;31.85;100.00;99883.09;5094883;28;20020;-76
2023/08/26 09:26:40;;;;;;;5.00;4.57;;;;;;;31.96;100.00;99885.16;5110504;28;20077;-77
2023/08/26 09:29:19;;;;;;;4.80;4.32;;;;;;;32.01;100.00;99886.91;5094863;28;20047;-78
2023/08/26 09:31:46;;;;;;;4.45;4.05;;;;;;;32.28;100.00;99883.22;5093640;28;20081;-75
2023/08/26 09:34:26;;;;;;;4.95;4.45;;;;;;;32.64;100.00;99885.88;5094744;28;20020;-76
2023/08/26 09:36:52;;;;;;;6.55;4.45;;;;;;;32.77;100.00;99874.72;5109304;28;20045;-75
2023/08/26 09:39:21;;;;;;;3.95;3.58;;;;;;;32.88;100.00;99859.75;5094772;28;20514;-76
2023/08/26 09:41:47;;;;;;;4.30;3.58;;;;;;;32.97;98.57;99852.06;5094327;28;20019;-77
2023/08/26 09:44:21;;;;;;;4.00;3.70;;;;;;;32.99;97.11;99858.81;5110027;28;20028;-78
2023/08/26 09:46:47;;;;;;;6.65;3.80;;;;;;;32.91;100.00;99866.53;5093248;28;20020;-77
2023/08/26 09:49:22;;;;;;;5.35;4.15;;;;;;;32.84;100.00;99853.63;5109927;28;20035;-77
2023/08/26 09:51:59;;;;;;;4.90;3.53;;;;;;;32.50;97.86;99863.66;5094132;28;20023;-77
2023/08/26 09:54:26;;;;;;;5.05;3.25;;;;;;;32.31;100.00;99856.03;5094385;28;20028;-76
2023/08/26 09:56:52;;;;;;;6.18;3.10;;;;;;;31.98;97.56;99847.59;5109471;28;20024;-76
2023/08/26 09:59:19;;;;;;;6.82;3.42;;;;;;;31.93;97.92;99839.94;5094145;28;20038;-75
2023/08/26 10:01:45;;;;;;;5.15;4.15;;;;;;;31.46;100.00;99835.78;5109991;28;20035;-78
2023/08/26 10:04:22;;;;;;;5.25;4.03;;;;;;;31.39;100.00;99838.44;5109522;28;20027;-78
2023/08/26 10:06:55;;;;;;;3.20;2.88;;;;;;;31.36;100.00;99827.13;5094387;28;20013;-75
2023/08/26 10:09:37;;;;;;;5.50;3.17;;;;;;;31.54;100.00;99824.44;5092910;28;20128;-76
2023/08/26 10:12:08;;;;;;;4.55;3.17;;;;;;;31.67;100.00;99824.47;5094423;28;20020;-76
2023/08/26 10:14:43;;;;;;;4.75;3.58;;;;;;;31.79;100.00;99825.16;5076263;28;20133;-76
2023/08/26 10:17:10;;;;;;;7.32;3.80;;;;;;;31.88;100.00;99819.69;5095032;28;20028;-77
2023/08/26 10:19:36;;;;;;;5.45;3.30;;;;;;;31.95;100.00;99821.53;5109715;28;20035;-77
2023/08/26 10:22:12;;;;;;;8.02;3.42;;;;;;;31.99;97.66;99825.50;5092823;28;20024;-77
2023/08/26 10:24:39;;;;;;;6.20;3.67;;;;;;;31.85;100.00;99821.00;5109409;28;20032;-76
2023/08/26 10:27:11;;;;;;;5.05;3.50;;;;;;;31.27;100.00;99820.00;5092270;28;20368;-78
2023/08/26 10:29:45;;;;;;;3.42;3.13;;;;;;;31.05;100.00;99829.78;5093968;28;20035;-76
2023/08/26 10:32:18;;;;;;;4.38;3.90;;;;;;;31.37;100.00;99819.81;5093746;28;20032;-76
2023/08/26 10:34:56;;;;;;;4.47;3.58;;;;;;;31.54;100.00;99807.50;5092375;28;20073;-78
2023/08/26 10:37:31;;;;;;;3.65;3.35;;;;;;;31.65;100.00;99805.84;5093900;28;20048;-78
2023/08/26 10:40:12;;;;;;;6.75;3.90;;;;;;;31.54;100.00;99816.34;5092422;28;20040;-80
2023/08/26 10:42:39;;;;;;;3.80;3.50;;;;;;;31.59;100.00;99817.34;5093453;28;20056;-77
2023/08/26 10:45:14;;;;;;;6.80;3.80;;;;;;;31.81;100.00;99822.28;5109375;28;20024;-78
2023/08/26 10:47:49;;;;;;;5.38;3.50;;;;;;;31.94;100.00;99829.66;5092205;28;20058;-78
2023/08/26 10:50:21;;;;;;;4.72;3.28;;;;;;;31.95;99.90;99824.47;5093861;28;20024;-78
2023/08/26 10:52:54;;;;;;;4.78;3.42;;;;;;;31.97;99.46;99821.63;5108443;28;20028;-77
2023/08/26 10:55:23;;;;;;;4.15;3.70;;;;;;;31.87;98.69;99829.97;5108847;28;20032;-78
2023/08/26 10:58:13;;;;;;;6.15;4.00;;;;;;;31.81;100.00;99827.44;5093304;28;20016;-76
2023/08/26 11:00:41;;;;;;;6.70;3.57;;;;;;;31.78;100.00;99843.53;5091980;28;20020;-78
2023/08/26 11:03:10;;;;;;;6.00;3.63;;;;;;;31.62;100.00;99848.53;5107928;28;20063;-77
2023/08/26 11:05:41;;;;;;;5.70;3.88;;;;;;;31.24;100.00;99842.00;5092543;28;20365;-76
2023/08/26 11:08:08;;;;;;;;;;;;;;;31.02;100.00;99849.53;5092673;28;20020;-78
2023/08/26 11:10:40;;;;;;;7.07;4.20;;;;;;;30.76;100.00;99842.84;5096457;28;19908;-78
2023/08/26 11:13:09;;;;;;;8.02;3.83;;;;;;;30.64;100.00;99865.00;5095051;28;20016;-78
2023/08/26 11:15:49;;;;;;;5.17;3.60;;;;;;;30.42;100.00;99873.22;5110703;28;20020;-80
2023/08/26 11:18:16;;;;;;;8.18;4.10;;;;;;;30.07;100.00;99871.09;5111705;28;20028;-79
2023/08/26 11:20:48;;;;;;;6.65;3.95;;;;;;;29.82;100.00;99865.09;5095738;28;20035;-76
2023/08/26 11:23:15;;;;;;;6.75;3.85;;;;;;;29.62;100.00;99875.59;5095275;28;20030;-77
2023/08/26 11:25:40;;;;;;;6.45;4.22;;;;;;;29.30;100.00;99868.34;5111630;28;20024;-78